sensor_id;sensor_type;location;lat;lon;timestamp;P1;durP1;ratioP1;P2;durP2;ratioP2
2874;SDS011;1445;52.600;13.328;2023-07-28T00:02:03;0.50;;;0.50;;
2874;SDS011;1445;52.600;13.328;2023-07-28T00:04:29;0.30;;;0.30;;
2874;SDS011;1445;52.600;13.328;2023-07-28T00:06:54;0.47;;;0.47;;
2874;SDS011;1445;52.600;13.328;2023-07-28T00:09:20;0.40;;;0.40;;
2874;SDS011;1445;52.600;13.328;2023-07-28T00:11:45;0.40;;;0.40;;
2874;SDS011;1445;52.600;13.328;2023-07-28T00:14:11;0.40;;;0.40;;
2874;SDS011;1445;52.600;13.328;2023-07-28T00:16:36;0.38;;;0.38;;
2874;SDS011;1445;52.600;13.328;2023-07-28T00:19:02;0.60;;;0.60;;
2874;SDS011;1445;52.600;13.328;2023-07-28T00:21:29;2.15;;;1.00;;
2874;SDS011;1445;52.600;13.328;2023-07-28T00:23:54;0.68;;;0.63;;
2874;SDS011;1445;52.600;13.328;2023-07-28T00:26:19;0.40;;;0.40;;
2874;SDS011;1445;52.600;13.328;2023-07-28T00:28:45;0.75;;;0.75;;
2874;SDS011;1445;52.600;13.328;2023-07-28T00:31:10;0.50;;;0.50;;
2874;SDS011;1445;52.600;13.328;2023-07-28T00:33:36;0.60;;;0.60;;
2874;SDS011;1445;52.600;13.328;2023-07-28T00:36:02;0.40;;;0.40;;
2874;SDS011;1445;52.600;13.328;2023-07-28T00:38:28;0.60;;;0.60;;
2874;SDS011;1445;52.600;13.328;2023-07-28T00:40:53;0.65;;;0.60;;
2874;SDS011;1445;52.600;13.328;2023-07-28T00:43:19;0.77;;;0.57;;
2874;SDS011;1445;52.600;13.328;2023-07-28T00:45:44;0.80;;;0.80;;
2874;SDS011;1445;52.600;13.328;2023-07-28T00:48:13;0.60;;;0.60;;
2874;SDS011;1445;52.600;13.328;2023-07-28T00:50:41;0.60;;;0.60;;
2874;SDS011;1445;52.600;13.328;2023-07-28T00:53:08;0.95;;;0.90;;
2874;SDS011;1445;52.600;13.328;2023-07-28T00:55:34;0.60;;;0.60;;
2874;SDS011;1445;52.600;13.328;2023-07-28T00:57:59;0.80;;;0.80;;
2874;SDS011;1445;52.600;13.328;2023-07-28T01:00:25;1.52;;;1.10;;
2874;SDS011;1445;52.600;13.328;2023-07-28T01:02:50;0.85;;;0.85;;
2874;SDS011;1445;52.600;13.328;2023-07-28T01:05:16;0.32;;;0.32;;
2874;SDS011;1445;52.600;13.328;2023-07-28T01:10:24;0.40;;;0.40;;
2874;SDS011;1445;52.600;13.328;2023-07-28T01:12:53;0.95;;;0.95;;
2874;SDS011;1445;52.600;13.328;2023-07-28T01:15:21;0.63;;;0.63;;
2874;SDS011;1445;52.600;13.328;2023-07-28T01:17:47;0.93;;;0.93;;
2874;SDS011;1445;52.600;13.328;2023-07-28T01:20:12;0.73;;;0.65;;
2874;SDS011;1445;52.600;13.328;2023-07-28T01:27:49;0.63;;;0.60;;
2874;SDS011;1445;52.600;13.328;2023-07-28T01:30:16;0.57;;;0.57;;
2874;SDS011;1445;52.600;13.328;2023-07-28T01:32:42;0.70;;;0.70;;
2874;SDS011;1445;52.600;13.328;2023-07-28T01:35:07;0.70;;;0.70;;
2874;SDS011;1445;52.600;13.328;2023-07-28T01:37:33;0.68;;;0.68;;
2874;SDS011;1445;52.600;13.328;2023-07-28T01:39:58;1.10;;;1.00;;
2874;SDS011;1445;52.600;13.328;2023-07-28T01:42:24;0.47;;;0.47;;
2874;SDS011;1445;52.600;13.328;2023-07-28T01:44:50;0.50;;;0.50;;
2874;SDS011;1445;52.600;13.328;2023-07-28T01:47:15;3.30;;;1.10;;
2874;SDS011;1445;52.600;13.328;2023-07-28T01:49:41;0.30;;;0.30;;
2874;SDS011;1445;52.600;13.328;2023-07-28T01:52:06;0.75;;;0.75;;
2874;SDS011;1445;52.600;13.328;2023-07-28T01:54:32;3.72;;;0.73;;
2874;SDS011;1445;52.600;13.328;2023-07-28T01:56:57;2.92;;;0.90;;
2874;SDS011;1445;52.600;13.328;2023-07-28T01:59:22;0.52;;;0.52;;
2874;SDS011;1445;52.600;13.328;2023-07-28T02:01:48;0.90;;;0.70;;
2874;SDS011;1445;52.600;13.328;2023-07-28T02:04:13;0.73;;;0.73;;
2874;SDS011;1445;52.600;13.328;2023-07-28T02:06:40;0.52;;;0.52;;
2874;SDS011;1445;52.600;13.328;2023-07-28T02:09:05;1.58;;;0.70;;
2874;SDS011;1445;52.600;13.328;2023-07-28T02:11:31;1.13;;;0.75;;
2874;SDS011;1445;52.600;13.328;2023-07-28T02:13:56;1.15;;;1.05;;
2874;SDS011;1445;52.600;13.328;2023-07-28T02:16:23;1.90;;;1.30;;
2874;SDS011;1445;52.600;13.328;2023-07-28T02:18:49;0.95;;;0.88;;
2874;SDS011;1445;52.600;13.328;2023-07-28T02:21:14;0.70;;;0.70;;
2874;SDS011;1445;52.600;13.328;2023-07-28T02:23:39;1.02;;;1.02;;
2874;SDS011;1445;52.600;13.328;2023-07-28T02:26:05;1.17;;;1.02;;
2874;SDS011;1445;52.600;13.328;2023-07-28T02:28:30;0.70;;;0.70;;
2874;SDS011;1445;52.600;13.328;2023-07-28T02:30:55;3.20;;;1.10;;
2874;SDS011;1445;52.600;13.328;2023-07-28T02:33:21;1.35;;;1.05;;
2874;SDS011;1445;52.600;13.328;2023-07-28T02:35:46;0.80;;;0.80;;
2874;SDS011;1445;52.600;13.328;2023-07-28T02:38:12;0.70;;;0.65;;
2874;SDS011;1445;52.600;13.328;2023-07-28T02:40:37;3.25;;;1.83;;
2874;SDS011;1445;52.600;13.328;2023-07-28T02:43:03;1.33;;;0.85;;
2874;SDS011;1445;52.600;13.328;2023-07-28T02:45:28;5.47;;;1.17;;
2874;SDS011;1445;52.600;13.328;2023-07-28T02:47:53;0.77;;;0.75;;
2874;SDS011;1445;52.600;13.328;2023-07-28T02:50:19;1.25;;;1.15;;
2874;SDS011;1445;52.600;13.328;2023-07-28T02:52:44;1.13;;;1.02;;
2874;SDS011;1445;52.600;13.328;2023-07-28T02:55:10;0.98;;;0.98;;
2874;SDS011;1445;52.600;13.328;2023-07-28T02:57:35;1.15;;;1.15;;
2874;SDS011;1445;52.600;13.328;2023-07-28T03:00:00;3.75;;;1.27;;
2874;SDS011;1445;52.600;13.328;2023-07-28T03:02:26;1.13;;;0.85;;
2874;SDS011;1445;52.600;13.328;2023-07-28T03:04:51;0.88;;;0.88;;
2874;SDS011;1445;52.600;13.328;2023-07-28T03:07:17;1.38;;;0.98;;
2874;SDS011;1445;52.600;13.328;2023-07-28T03:09:42;0.93;;;0.73;;
2874;SDS011;1445;52.600;13.328;2023-07-28T03:12:08;1.73;;;1.38;;
2874;SDS011;1445;52.600;13.328;2023-07-28T03:14:34;2.25;;;1.17;;
2874;SDS011;1445;52.600;13.328;2023-07-28T03:16:59;1.88;;;1.73;;
2874;SDS011;1445;52.600;13.328;2023-07-28T03:19:24;1.23;;;1.13;;
2874;SDS011;1445;52.600;13.328;2023-07-28T03:21:50;1.50;;;1.40;;
2874;SDS011;1445;52.600;13.328;2023-07-28T03:24:15;1.38;;;1.13;;
2874;SDS011;1445;52.600;13.328;2023-07-28T03:26:40;1.48;;;1.30;;
2874;SDS011;1445;52.600;13.328;2023-07-28T03:29:06;1.50;;;1.40;;
2874;SDS011;1445;52.600;13.328;2023-07-28T03:31:31;2.10;;;1.33;;
2874;SDS011;1445;52.600;13.328;2023-07-28T03:34:00;2.85;;;1.80;;
2874;SDS011;1445;52.600;13.328;2023-07-28T03:36:26;1.85;;;1.75;;
2874;SDS011;1445;52.600;13.328;2023-07-28T03:38:52;3.45;;;1.60;;
2874;SDS011;1445;52.600;13.328;2023-07-28T03:41:17;1.27;;;1.08;;
2874;SDS011;1445;52.600;13.328;2023-07-28T03:43:43;1.38;;;1.27;;
2874;SDS011;1445;52.600;13.328;2023-07-28T03:46:08;1.63;;;1.30;;
2874;SDS011;1445;52.600;13.328;2023-07-28T03:48:34;3.42;;;1.67;;
2874;SDS011;1445;52.600;13.328;2023-07-28T03:50:59;1.08;;;1.02;;
2874;SDS011;1445;52.600;13.328;2023-07-28T03:53:24;2.67;;;1.67;;
2874;SDS011;1445;52.600;13.328;2023-07-28T03:55:50;2.92;;;2.28;;
2874;SDS011;1445;52.600;13.328;2023-07-28T03:58:15;1.30;;;1.08;;
2874;SDS011;1445;52.600;13.328;2023-07-28T04:00:41;1.42;;;1.15;;
2874;SDS011;1445;52.600;13.328;2023-07-28T04:03:06;2.70;;;2.47;;
2874;SDS011;1445;52.600;13.328;2023-07-28T04:05:31;2.03;;;1.75;;
2874;SDS011;1445;52.600;13.328;2023-07-28T04:07:57;3.30;;;2.42;;
2874;SDS011;1445;52.600;13.328;2023-07-28T04:10:22;2.35;;;1.27;;
2874;SDS011;1445;52.600;13.328;2023-07-28T04:12:48;2.50;;;2.15;;
2874;SDS011;1445;52.600;13.328;2023-07-28T04:15:13;1.80;;;1.67;;
2874;SDS011;1445;52.600;13.328;2023-07-28T04:17:39;2.20;;;1.52;;
2874;SDS011;1445;52.600;13.328;2023-07-28T04:20:05;3.28;;;2.33;;
2874;SDS011;1445;52.600;13.328;2023-07-28T04:22:31;1.98;;;1.58;;
2874;SDS011;1445;52.600;13.328;2023-07-28T04:24:56;1.55;;;1.25;;
2874;SDS011;1445;52.600;13.328;2023-07-28T04:27:21;2.38;;;1.90;;
2874;SDS011;1445;52.600;13.328;2023-07-28T04:29:47;3.83;;;1.42;;
2874;SDS011;1445;52.600;13.328;2023-07-28T04:32:12;1.85;;;1.75;;
2874;SDS011;1445;52.600;13.328;2023-07-28T04:34:38;2.15;;;1.58;;
2874;SDS011;1445;52.600;13.328;2023-07-28T04:37:03;3.63;;;1.55;;
2874;SDS011;1445;52.600;13.328;2023-07-28T04:39:29;1.70;;;1.27;;
2874;SDS011;1445;52.600;13.328;2023-07-28T04:41:54;2.42;;;1.90;;
2874;SDS011;1445;52.600;13.328;2023-07-28T04:44:20;2.45;;;1.83;;
2874;SDS011;1445;52.600;13.328;2023-07-28T04:46:45;1.67;;;1.10;;
2874;SDS011;1445;52.600;13.328;2023-07-28T04:49:13;4.32;;;1.73;;
2874;SDS011;1445;52.600;13.328;2023-07-28T04:51:39;3.53;;;1.40;;
2874;SDS011;1445;52.600;13.328;2023-07-28T04:54:04;3.28;;;2.30;;
2874;SDS011;1445;52.600;13.328;2023-07-28T04:56:30;3.10;;;1.75;;
2874;SDS011;1445;52.600;13.328;2023-07-28T04:58:55;2.13;;;1.92;;
2874;SDS011;1445;52.600;13.328;2023-07-28T05:01:20;1.77;;;1.65;;
2874;SDS011;1445;52.600;13.328;2023-07-28T05:03:46;2.17;;;1.70;;
2874;SDS011;1445;52.600;13.328;2023-07-28T05:06:12;2.88;;;1.60;;
2874;SDS011;1445;52.600;13.328;2023-07-28T05:08:38;1.63;;;1.40;;
2874;SDS011;1445;52.600;13.328;2023-07-28T05:11:03;1.58;;;1.48;;
2874;SDS011;1445;52.600;13.328;2023-07-28T05:13:29;7.38;;;1.50;;
2874;SDS011;1445;52.600;13.328;2023-07-28T05:15:54;1.73;;;1.50;;
2874;SDS011;1445;52.600;13.328;2023-07-28T05:18:19;1.83;;;1.73;;
2874;SDS011;1445;52.600;13.328;2023-07-28T05:20:45;9.73;;;1.55;;
2874;SDS011;1445;52.600;13.328;2023-07-28T05:23:10;2.05;;;1.65;;
2874;SDS011;1445;52.600;13.328;2023-07-28T05:25:35;1.05;;;0.95;;
2874;SDS011;1445;52.600;13.328;2023-07-28T05:28:01;2.28;;;1.15;;
2874;SDS011;1445;52.600;13.328;2023-07-28T05:30:26;2.22;;;1.65;;
2874;SDS011;1445;52.600;13.328;2023-07-28T05:32:53;1.85;;;1.23;;
2874;SDS011;1445;52.600;13.328;2023-07-28T05:35:19;2.30;;;1.92;;
2874;SDS011;1445;52.600;13.328;2023-07-28T05:37:45;2.42;;;1.55;;
2874;SDS011;1445;52.600;13.328;2023-07-28T05:40:11;1.80;;;1.33;;
2874;SDS011;1445;52.600;13.328;2023-07-28T05:42:47;1.42;;;1.27;;
2874;SDS011;1445;52.600;13.328;2023-07-28T05:45:35;1.42;;;1.33;;
2874;SDS011;1445;52.600;13.328;2023-07-28T05:48:22;1.30;;;1.20;;
2874;SDS011;1445;52.600;13.328;2023-07-28T05:50:48;5.40;;;2.72;;
2874;SDS011;1445;52.600;13.328;2023-07-28T05:53:13;2.72;;;1.77;;
2874;SDS011;1445;52.600;13.328;2023-07-28T05:55:39;2.15;;;1.80;;
2874;SDS011;1445;52.600;13.328;2023-07-28T05:58:05;1.40;;;1.30;;
2874;SDS011;1445;52.600;13.328;2023-07-28T06:00:30;2.40;;;1.83;;
2874;SDS011;1445;52.600;13.328;2023-07-28T06:02:56;2.53;;;1.45;;
2874;SDS011;1445;52.600;13.328;2023-07-28T06:05:22;1.50;;;1.35;;
2874;SDS011;1445;52.600;13.328;2023-07-28T06:07:48;0.95;;;0.90;;
2874;SDS011;1445;52.600;13.328;2023-07-28T06:10:13;1.38;;;1.27;;
2874;SDS011;1445;52.600;13.328;2023-07-28T06:12:38;3.35;;;1.42;;
2874;SDS011;1445;52.600;13.328;2023-07-28T06:15:04;1.40;;;1.23;;
2874;SDS011;1445;52.600;13.328;2023-07-28T06:17:31;1.25;;;1.15;;
2874;SDS011;1445;52.600;13.328;2023-07-28T06:19:57;2.72;;;1.75;;
2874;SDS011;1445;52.600;13.328;2023-07-28T06:22:22;2.92;;;2.05;;
2874;SDS011;1445;52.600;13.328;2023-07-28T06:24:48;1.63;;;0.85;;
2874;SDS011;1445;52.600;13.328;2023-07-28T06:27:13;1.55;;;1.33;;
2874;SDS011;1445;52.600;13.328;2023-07-28T06:29:38;1.50;;;1.30;;
2874;SDS011;1445;52.600;13.328;2023-07-28T06:32:04;3.42;;;2.15;;
2874;SDS011;1445;52.600;13.328;2023-07-28T06:34:30;2.53;;;2.10;;
2874;SDS011;1445;52.600;13.328;2023-07-28T06:36:56;1.83;;;1.52;;
2874;SDS011;1445;52.600;13.328;2023-07-28T06:39:21;2.05;;;1.77;;
2874;SDS011;1445;52.600;13.328;2023-07-28T06:41:47;1.65;;;1.52;;
2874;SDS011;1445;52.600;13.328;2023-07-28T06:44:12;1.30;;;1.20;;
2874;SDS011;1445;52.600;13.328;2023-07-28T06:46:37;1.23;;;1.13;;
2874;SDS011;1445;52.600;13.328;2023-07-28T06:49:03;1.38;;;1.17;;
2874;SDS011;1445;52.600;13.328;2023-07-28T06:51:28;1.33;;;1.23;;
2874;SDS011;1445;52.600;13.328;2023-07-28T06:53:54;1.85;;;0.98;;
2874;SDS011;1445;52.600;13.328;2023-07-28T06:56:20;0.88;;;0.88;;
2874;SDS011;1445;52.600;13.328;2023-07-28T06:58:45;1.38;;;1.23;;
2874;SDS011;1445;52.600;13.328;2023-07-28T07:01:10;1.30;;;1.20;;
2874;SDS011;1445;52.600;13.328;2023-07-28T07:03:36;0.68;;;0.68;;
2874;SDS011;1445;52.600;13.328;2023-07-28T07:06:02;1.55;;;1.30;;
2874;SDS011;1445;52.600;13.328;2023-07-28T07:08:28;1.85;;;1.08;;
2874;SDS011;1445;52.600;13.328;2023-07-28T07:10:53;1.33;;;0.95;;
2874;SDS011;1445;52.600;13.328;2023-07-28T07:13:19;1.95;;;1.23;;
2874;SDS011;1445;52.600;13.328;2023-07-28T07:15:44;0.85;;;0.85;;
2874;SDS011;1445;52.600;13.328;2023-07-28T07:18:11;2.78;;;1.63;;
2874;SDS011;1445;52.600;13.328;2023-07-28T07:20:36;0.73;;;0.73;;
2874;SDS011;1445;52.600;13.328;2023-07-28T07:23:03;1.38;;;1.13;;
2874;SDS011;1445;52.600;13.328;2023-07-28T07:25:29;0.70;;;0.70;;
2874;SDS011;1445;52.600;13.328;2023-07-28T07:27:54;0.80;;;0.80;;
2874;SDS011;1445;52.600;13.328;2023-07-28T07:30:20;2.70;;;0.82;;
2874;SDS011;1445;52.600;13.328;2023-07-28T07:32:46;2.85;;;1.40;;
2874;SDS011;1445;52.600;13.328;2023-07-28T07:35:11;1.10;;;1.00;;
2874;SDS011;1445;52.600;13.328;2023-07-28T07:37:37;2.53;;;1.55;;
2874;SDS011;1445;52.600;13.328;2023-07-28T07:40:04;1.13;;;1.02;;
2874;SDS011;1445;52.600;13.328;2023-07-28T07:42:42;0.75;;;0.75;;
2874;SDS011;1445;52.600;13.328;2023-07-28T07:45:11;1.13;;;0.90;;
2874;SDS011;1445;52.600;13.328;2023-07-28T07:47:38;1.20;;;0.98;;
2874;SDS011;1445;52.600;13.328;2023-07-28T07:50:07;0.82;;;0.73;;
2874;SDS011;1445;52.600;13.328;2023-07-28T07:52:37;1.55;;;1.20;;
2874;SDS011;1445;52.600;13.328;2023-07-28T07:55:03;1.50;;;1.13;;
2874;SDS011;1445;52.600;13.328;2023-07-28T07:57:29;0.93;;;0.93;;
2874;SDS011;1445;52.600;13.328;2023-07-28T07:59:57;0.32;;;0.32;;
2874;SDS011;1445;52.600;13.328;2023-07-28T08:02:23;1.65;;;0.73;;
2874;SDS011;1445;52.600;13.328;2023-07-28T08:04:48;1.33;;;1.15;;
2874;SDS011;1445;52.600;13.328;2023-07-28T08:07:14;0.55;;;0.55;;
2874;SDS011;1445;52.600;13.328;2023-07-28T08:09:41;1.20;;;1.08;;
2874;SDS011;1445;52.600;13.328;2023-07-28T08:12:07;0.88;;;0.63;;
2874;SDS011;1445;52.600;13.328;2023-07-28T08:14:33;1.25;;;1.08;;
2874;SDS011;1445;52.600;13.328;2023-07-28T08:16:59;1.27;;;1.05;;
2874;SDS011;1445;52.600;13.328;2023-07-28T08:19:24;1.33;;;0.80;;
2874;SDS011;1445;52.600;13.328;2023-07-28T08:21:50;0.45;;;0.45;;
2874;SDS011;1445;52.600;13.328;2023-07-28T08:24:16;0.90;;;0.90;;
2874;SDS011;1445;52.600;13.328;2023-07-28T08:26:42;0.68;;;0.65;;
2874;SDS011;1445;52.600;13.328;2023-07-28T08:29:07;0.50;;;0.50;;
2874;SDS011;1445;52.600;13.328;2023-07-28T08:31:32;0.50;;;0.50;;
2874;SDS011;1445;52.600;13.328;2023-07-28T08:34:01;0.35;;;0.35;;
2874;SDS011;1445;52.600;13.328;2023-07-28T08:36:26;0.82;;;0.82;;
2874;SDS011;1445;52.600;13.328;2023-07-28T08:38:52;0.38;;;0.38;;
2874;SDS011;1445;52.600;13.328;2023-07-28T08:41:18;0.57;;;0.57;;
2874;SDS011;1445;52.600;13.328;2023-07-28T08:43:44;0.52;;;0.52;;
2874;SDS011;1445;52.600;13.328;2023-07-28T08:46:10;0.65;;;0.65;;
2874;SDS011;1445;52.600;13.328;2023-07-28T08:48:35;0.57;;;0.57;;
2874;SDS011;1445;52.600;13.328;2023-07-28T08:51:02;1.90;;;0.98;;
2874;SDS011;1445;52.600;13.328;2023-07-28T08:53:29;0.82;;;0.82;;
2874;SDS011;1445;52.600;13.328;2023-07-28T08:55:54;0.60;;;0.60;;
2874;SDS011;1445;52.600;13.328;2023-07-28T08:58:21;0.88;;;0.85;;
2874;SDS011;1445;52.600;13.328;2023-07-28T09:00:48;0.40;;;0.40;;
2874;SDS011;1445;52.600;13.328;2023-07-28T09:03:15;0.32;;;0.32;;
2874;SDS011;1445;52.600;13.328;2023-07-28T09:05:44;1.52;;;1.20;;
2874;SDS011;1445;52.600;13.328;2023-07-28T09:08:13;0.43;;;0.43;;
2874;SDS011;1445;52.600;13.328;2023-07-28T09:10:40;0.60;;;0.60;;
2874;SDS011;1445;52.600;13.328;2023-07-28T09:13:16;0.60;;;0.60;;
2874;SDS011;1445;52.600;13.328;2023-07-28T09:15:43;0.50;;;0.50;;
2874;SDS011;1445;52.600;13.328;2023-07-28T09:18:10;0.73;;;0.73;;
2874;SDS011;1445;52.600;13.328;2023-07-28T09:20:37;0.73;;;0.63;;
2874;SDS011;1445;52.600;13.328;2023-07-28T09:23:04;0.60;;;0.60;;
2874;SDS011;1445;52.600;13.328;2023-07-28T09:25:30;0.50;;;0.50;;
2874;SDS011;1445;52.600;13.328;2023-07-28T09:27:57;0.77;;;0.77;;
2874;SDS011;1445;52.600;13.328;2023-07-28T09:30:23;0.60;;;0.60;;
2874;SDS011;1445;52.600;13.328;2023-07-28T09:32:50;1.05;;;1.00;;
2874;SDS011;1445;52.600;13.328;2023-07-28T09:35:17;0.55;;;0.55;;
2874;SDS011;1445;52.600;13.328;2023-07-28T09:37:45;0.50;;;0.50;;
2874;SDS011;1445;52.600;13.328;2023-07-28T09:40:19;0.70;;;0.50;;
2874;SDS011;1445;52.600;13.328;2023-07-28T09:42:46;0.75;;;0.75;;
2874;SDS011;1445;52.600;13.328;2023-07-28T09:45:17;0.98;;;0.90;;
2874;SDS011;1445;52.600;13.328;2023-07-28T09:47:46;0.90;;;0.90;;
2874;SDS011;1445;52.600;13.328;2023-07-28T09:50:16;0.57;;;0.57;;
2874;SDS011;1445;52.600;13.328;2023-07-28T09:52:45;0.65;;;0.60;;
2874;SDS011;1445;52.600;13.328;2023-07-28T09:55:12;0.35;;;0.35;;
2874;SDS011;1445;52.600;13.328;2023-07-28T09:57:45;0.65;;;0.60;;
2874;SDS011;1445;52.600;13.328;2023-07-28T10:00:12;0.50;;;0.50;;
2874;SDS011;1445;52.600;13.328;2023-07-28T10:02:39;0.52;;;0.52;;
2874;SDS011;1445;52.600;13.328;2023-07-28T10:05:05;0.70;;;0.63;;
2874;SDS011;1445;52.600;13.328;2023-07-28T10:07:35;0.40;;;0.40;;
2874;SDS011;1445;52.600;13.328;2023-07-28T10:10:05;0.68;;;0.68;;
2874;SDS011;1445;52.600;13.328;2023-07-28T10:12:49;0.50;;;0.50;;
2874;SDS011;1445;52.600;13.328;2023-07-28T10:15:19;0.50;;;0.50;;
2874;SDS011;1445;52.600;13.328;2023-07-28T10:17:50;0.40;;;0.40;;
2874;SDS011;1445;52.600;13.328;2023-07-28T10:23:01;0.60;;;0.38;;
2874;SDS011;1445;52.600;13.328;2023-07-28T10:25:35;0.40;;;0.40;;
2874;SDS011;1445;52.600;13.328;2023-07-28T10:28:01;0.40;;;0.40;;
2874;SDS011;1445;52.600;13.328;2023-07-28T10:30:34;0.85;;;0.82;;
2874;SDS011;1445;52.600;13.328;2023-07-28T10:33:01;1.38;;;0.98;;
2874;SDS011;1445;52.600;13.328;2023-07-28T10:35:28;1.10;;;0.60;;
2874;SDS011;1445;52.600;13.328;2023-07-28T10:37:56;0.55;;;0.55;;
2874;SDS011;1445;52.600;13.328;2023-07-28T10:42:59;0.40;;;0.40;;
2874;SDS011;1445;52.600;13.328;2023-07-28T10:45:27;0.55;;;0.52;;
2874;SDS011;1445;52.600;13.328;2023-07-28T10:47:54;0.32;;;0.32;;
2874;SDS011;1445;52.600;13.328;2023-07-28T10:50:23;0.38;;;0.38;;
2874;SDS011;1445;52.600;13.328;2023-07-28T10:52:49;0.40;;;0.40;;
2874;SDS011;1445;52.600;13.328;2023-07-28T10:55:19;0.40;;;0.40;;
2874;SDS011;1445;52.600;13.328;2023-07-28T10:57:46;0.50;;;0.50;;
2874;SDS011;1445;52.600;13.328;2023-07-28T11:00:15;0.40;;;0.40;;
2874;SDS011;1445;52.600;13.328;2023-07-28T11:02:42;0.40;;;0.40;;
2874;SDS011;1445;52.600;13.328;2023-07-28T11:05:12;0.28;;;0.28;;
2874;SDS011;1445;52.600;13.328;2023-07-28T11:07:42;8.90;;;0.55;;
2874;SDS011;1445;52.600;13.328;2023-07-28T11:10:15;0.50;;;0.50;;
2874;SDS011;1445;52.600;13.328;2023-07-28T11:12:46;0.38;;;0.38;;
2874;SDS011;1445;52.600;13.328;2023-07-28T11:15:14;0.60;;;0.60;;
2874;SDS011;1445;52.600;13.328;2023-07-28T11:17:43;1.25;;;0.88;;
2874;SDS011;1445;52.600;13.328;2023-07-28T11:22:43;1.02;;;0.68;;
2874;SDS011;1445;52.600;13.328;2023-07-28T11:25:17;0.52;;;0.52;;
2874;SDS011;1445;52.600;13.328;2023-07-28T11:27:45;0.30;;;0.30;;
2874;SDS011;1445;52.600;13.328;2023-07-28T11:30:13;0.30;;;0.30;;
2874;SDS011;1445;52.600;13.328;2023-07-28T11:32:41;0.40;;;0.40;;
2874;SDS011;1445;52.600;13.328;2023-07-28T11:35:10;1.33;;;0.70;;
2874;SDS011;1445;52.600;13.328;2023-07-28T11:37:40;0.43;;;0.43;;
2874;SDS011;1445;52.600;13.328;2023-07-28T11:40:07;0.32;;;0.32;;
2874;SDS011;1445;52.600;13.328;2023-07-28T11:45:04;0.40;;;0.40;;
2874;SDS011;1445;52.600;13.328;2023-07-28T11:47:30;0.93;;;0.90;;
2874;SDS011;1445;52.600;13.328;2023-07-28T11:49:56;0.40;;;0.40;;
2874;SDS011;1445;52.600;13.328;2023-07-28T11:52:35;0.25;;;0.25;;
2874;SDS011;1445;52.600;13.328;2023-07-28T11:55:05;0.50;;;0.50;;
2874;SDS011;1445;52.600;13.328;2023-07-28T11:57:31;0.55;;;0.55;;
2874;SDS011;1445;52.600;13.328;2023-07-28T11:59:58;0.40;;;0.40;;
2874;SDS011;1445;52.600;13.328;2023-07-28T12:02:27;0.50;;;0.50;;
2874;SDS011;1445;52.600;13.328;2023-07-28T12:04:53;0.70;;;0.70;;
2874;SDS011;1445;52.600;13.328;2023-07-28T12:07:27;0.50;;;0.50;;
2874;SDS011;1445;52.600;13.328;2023-07-28T12:09:54;0.65;;;0.65;;
2874;SDS011;1445;52.600;13.328;2023-07-28T12:12:26;0.47;;;0.47;;
2874;SDS011;1445;52.600;13.328;2023-07-28T12:14:56;0.60;;;0.60;;
2874;SDS011;1445;52.600;13.328;2023-07-28T12:17:29;0.65;;;0.60;;
2874;SDS011;1445;52.600;13.328;2023-07-28T12:22:38;1.05;;;0.80;;
2874;SDS011;1445;52.600;13.328;2023-07-28T12:25:04;0.57;;;0.50;;
2874;SDS011;1445;52.600;13.328;2023-07-28T12:27:30;0.50;;;0.50;;
2874;SDS011;1445;52.600;13.328;2023-07-28T12:29:56;0.80;;;0.75;;
2874;SDS011;1445;52.600;13.328;2023-07-28T12:32:21;1.25;;;0.73;;
2874;SDS011;1445;52.600;13.328;2023-07-28T12:34:48;0.75;;;0.63;;
2874;SDS011;1445;52.600;13.328;2023-07-28T12:37:15;0.55;;;0.55;;
2874;SDS011;1445;52.600;13.328;2023-07-28T12:39:41;0.75;;;0.75;;
2874;SDS011;1445;52.600;13.328;2023-07-28T12:42:07;1.40;;;0.63;;
2874;SDS011;1445;52.600;13.328;2023-07-28T12:44:33;0.57;;;0.57;;
2874;SDS011;1445;52.600;13.328;2023-07-28T12:46:59;0.73;;;0.60;;
2874;SDS011;1445;52.600;13.328;2023-07-28T12:49:25;1.30;;;0.35;;
2874;SDS011;1445;52.600;13.328;2023-07-28T12:51:50;0.60;;;0.60;;
2874;SDS011;1445;52.600;13.328;2023-07-28T12:54:15;0.65;;;0.50;;
2874;SDS011;1445;52.600;13.328;2023-07-28T12:56:41;0.30;;;0.30;;
2874;SDS011;1445;52.600;13.328;2023-07-28T12:59:07;0.40;;;0.40;;
2874;SDS011;1445;52.600;13.328;2023-07-28T13:01:33;1.10;;;0.75;;
2874;SDS011;1445;52.600;13.328;2023-07-28T13:03:59;0.55;;;0.52;;
2874;SDS011;1445;52.600;13.328;2023-07-28T13:06:24;0.63;;;0.50;;
2874;SDS011;1445;52.600;13.328;2023-07-28T13:08:50;0.40;;;0.40;;
2874;SDS011;1445;52.600;13.328;2023-07-28T13:11:15;0.30;;;0.30;;
2874;SDS011;1445;52.600;13.328;2023-07-28T13:13:41;0.40;;;0.40;;
2874;SDS011;1445;52.600;13.328;2023-07-28T13:16:06;0.40;;;0.40;;
2874;SDS011;1445;52.600;13.328;2023-07-28T13:18:32;0.90;;;0.65;;
2874;SDS011;1445;52.600;13.328;2023-07-28T13:20:58;0.35;;;0.35;;
2874;SDS011;1445;52.600;13.328;2023-07-28T13:23:24;0.63;;;0.47;;
2874;SDS011;1445;52.600;13.328;2023-07-28T13:25:49;0.75;;;0.50;;
2874;SDS011;1445;52.600;13.328;2023-07-28T13:28:15;0.50;;;0.40;;
2874;SDS011;1445;52.600;13.328;2023-07-28T13:30:41;0.90;;;0.60;;
2874;SDS011;1445;52.600;13.328;2023-07-28T13:33:06;0.40;;;0.40;;
2874;SDS011;1445;52.600;13.328;2023-07-28T13:35:32;1.05;;;0.57;;
2874;SDS011;1445;52.600;13.328;2023-07-28T13:37:57;0.38;;;0.38;;
2874;SDS011;1445;52.600;13.328;2023-07-28T13:40:23;0.38;;;0.38;;
2874;SDS011;1445;52.600;13.328;2023-07-28T13:42:49;0.30;;;0.30;;
2874;SDS011;1445;52.600;13.328;2023-07-28T13:45:14;0.32;;;0.32;;
2874;SDS011;1445;52.600;13.328;2023-07-28T13:47:40;0.45;;;0.40;;
2874;SDS011;1445;52.600;13.328;2023-07-28T13:50:05;0.70;;;0.50;;
2874;SDS011;1445;52.600;13.328;2023-07-28T13:52:32;0.20;;;0.20;;
2874;SDS011;1445;52.600;13.328;2023-07-28T13:54:57;0.30;;;0.30;;
2874;SDS011;1445;52.600;13.328;2023-07-28T13:57:23;0.43;;;0.43;;
2874;SDS011;1445;52.600;13.328;2023-07-28T13:59:49;1.08;;;0.80;;
2874;SDS011;1445;52.600;13.328;2023-07-28T14:02:16;0.73;;;0.60;;
2874;SDS011;1445;52.600;13.328;2023-07-28T14:04:42;0.75;;;0.75;;
2874;SDS011;1445;52.600;13.328;2023-07-28T14:07:08;0.52;;;0.52;;
2874;SDS011;1445;52.600;13.328;2023-07-28T14:09:33;0.30;;;0.30;;
2874;SDS011;1445;52.600;13.328;2023-07-28T14:11:59;0.47;;;0.40;;
2874;SDS011;1445;52.600;13.328;2023-07-28T14:14:24;0.40;;;0.40;;
2874;SDS011;1445;52.600;13.328;2023-07-28T14:16:50;0.40;;;0.40;;
2874;SDS011;1445;52.600;13.328;2023-07-28T14:19:15;0.10;;;0.10;;
2874;SDS011;1445;52.600;13.328;2023-07-28T14:21:40;0.22;;;0.22;;
2874;SDS011;1445;52.600;13.328;2023-07-28T14:24:06;0.38;;;0.38;;
2874;SDS011;1445;52.600;13.328;2023-07-28T14:26:31;0.20;;;0.20;;
2874;SDS011;1445;52.600;13.328;2023-07-28T14:28:57;0.22;;;0.22;;
2874;SDS011;1445;52.600;13.328;2023-07-28T14:31:22;0.30;;;0.30;;
2874;SDS011;1445;52.600;13.328;2023-07-28T14:33:48;0.45;;;0.45;;
2874;SDS011;1445;52.600;13.328;2023-07-28T14:36:13;0.47;;;0.30;;
2874;SDS011;1445;52.600;13.328;2023-07-28T14:38:39;0.63;;;0.45;;
2874;SDS011;1445;52.600;13.328;2023-07-28T14:41:04;0.25;;;0.25;;
2874;SDS011;1445;52.600;13.328;2023-07-28T14:43:29;0.32;;;0.30;;
2874;SDS011;1445;52.600;13.328;2023-07-28T14:45:55;0.43;;;0.30;;
2874;SDS011;1445;52.600;13.328;2023-07-28T14:48:20;0.30;;;0.30;;
2874;SDS011;1445;52.600;13.328;2023-07-28T14:50:46;0.85;;;0.30;;
2874;SDS011;1445;52.600;13.328;2023-07-28T14:55:57;0.40;;;0.40;;
2874;SDS011;1445;52.600;13.328;2023-07-28T14:58:23;0.40;;;0.35;;
2874;SDS011;1445;52.600;13.328;2023-07-28T15:00:50;0.30;;;0.30;;
2874;SDS011;1445;52.600;13.328;2023-07-28T15:03:15;0.70;;;0.57;;
2874;SDS011;1445;52.600;13.328;2023-07-28T15:05:40;1.98;;;0.57;;
2874;SDS011;1445;52.600;13.328;2023-07-28T15:08:06;12.68;;;0.57;;
2874;SDS011;1445;52.600;13.328;2023-07-28T15:10:31;0.47;;;0.47;;
2874;SDS011;1445;52.600;13.328;2023-07-28T15:12:56;0.40;;;0.40;;
2874;SDS011;1445;52.600;13.328;2023-07-28T15:15:23;0.45;;;0.45;;
2874;SDS011;1445;52.600;13.328;2023-07-28T15:17:48;0.85;;;0.57;;
2874;SDS011;1445;52.600;13.328;2023-07-28T15:20:14;0.43;;;0.30;;